Time;durP1;ratioP1;P1;durP2;ratioP2;P2;SDS_P1;SDS_P2;PMS_P1;PMS_P2;Temp;Humidity;BMP_temperature;BMP_pressure;BME280_temperature;BME280_humidity;BME280_pressure;Samples;Min_cycle;Max_cycle;Signal;HPM_P1;HPM_P2
2021/01/17 00:00:50;;;;;;;12.53;10.00;;;;;;;;;;5029969;28;20421;-56
2021/01/17 00:03:16;;;;;;;13.37;10.87;;;;;;;;;;5030168;28;20464;-56
2021/01/17 00:05:43;;;;;;;11.83;9.23;;;;;;;;;;5011960;28;20413;-57
2021/01/17 00:08:10;;;;;;;11.90;9.77;;;;;;;;;;5030586;28;20448;-56
2021/01/17 00:10:37;;;;;;;12.50;9.43;;;;;;;;;;5030077;28;20460;-56
2021/01/17 00:13:04;;;;;;;12.83;10.07;;;;;;;;;;5011344;28;20515;-57
2021/01/17 00:15:31;;;;;;;13.63;10.07;;;;;;;;;;5029027;28;20545;-57
2021/01/17 00:17:57;;;;;;;12.17;9.33;;;;;;;;;;5030300;28;20408;-57
2021/01/17 00:20:24;;;;;;;12.60;9.60;;;;;;;;;;5011554;28;20421;-57
2021/01/17 00:22:53;;;;;;;13.07;9.57;;;;;;;;;;5030027;28;20788;-58
2021/01/17 00:25:20;;;;;;;12.87;9.90;;;;;;;;;;5012267;28;21109;-58
2021/01/17 00:27:50;;;;;;;12.30;9.83;;;;;;;;;;5029621;28;20424;-58
2021/01/17 00:30:16;;;;;;;13.23;10.57;;;;;;;;;;4995724;28;20425;-57
2021/01/17 00:32:47;;;;;;;14.40;10.63;;;;;;;;;;5029823;28;20428;-56
2021/01/17 00:35:14;;;;;;;12.87;9.80;;;;;;;;;;5010134;28;20394;-56
2021/01/17 00:37:40;;;;;;;12.43;9.23;;;;;;;;;;5010282;28;20441;-57
2021/01/17 00:40:06;;;;;;;12.10;9.70;;;;;;;;;;5030371;28;20408;-57
2021/01/17 00:42:33;;;;;;;11.00;8.67;;;;;;;;;;5029856;28;20481;-57
2021/01/17 00:44:59;;;;;;;13.20;10.27;;;;;;;;;;5011892;28;20453;-57
2021/01/17 00:47:28;;;;;;;12.40;10.07;;;;;;;;;;5030404;28;20779;-57
2021/01/17 00:49:59;;;;;;;11.47;9.73;;;;;;;;;;5029707;28;20420;-57
2021/01/17 00:52:26;;;;;;;12.13;9.47;;;;;;;;;;5012244;28;20425;-57
2021/01/17 00:54:52;;;;;;;14.10;9.77;;;;;;;;;;5030920;28;20420;-57
2021/01/17 00:57:18;;;;;;;12.57;9.93;;;;;;;;;;5012223;28;20771;-57
2021/01/17 00:59:44;;;;;;;12.57;9.20;;;;;;;;;;5012813;28;20413;-57
2021/01/17 01:02:10;;;;;;;11.20;9.23;;;;;;;;;;5031180;28;20429;-60
2021/01/17 01:04:36;;;;;;;13.23;9.23;;;;;;;;;;5030759;28;20894;-57
2021/01/17 01:07:03;;;;;;;12.20;9.77;;;;;;;;;;5025416;28;20461;-57
2021/01/17 01:09:29;;;;;;;12.70;9.47;;;;;;;;;;5027987;28;20460;-57
2021/01/17 01:11:55;;;;;;;11.33;9.30;;;;;;;;;;5011545;28;20416;-56
2021/01/17 01:14:22;;;;;;;13.53;9.30;;;;;;;;;;5029765;28;20464;-57
2021/01/17 01:16:48;;;;;;;12.80;9.40;;;;;;;;;;5011715;28;20439;-57
2021/01/17 01:19:15;;;;;;;13.97;9.87;;;;;;;;;;5029149;28;20444;-57
2021/01/17 01:21:41;;;;;;;11.97;9.77;;;;;;;;;;5029626;28;21335;-57
2021/01/17 01:24:07;;;;;;;13.23;9.60;;;;;;;;;;5011613;28;20467;-57
2021/01/17 01:26:37;;;;;;;12.53;9.20;;;;;;;;;;5029477;28;20906;-57
2021/01/17 01:29:03;;;;;;;14.47;10.53;;;;;;;;;;5028719;28;20426;-56
2021/01/17 01:31:30;;;;;;;13.43;10.57;;;;;;;;;;5029236;28;20448;-57
2021/01/17 01:33:56;;;;;;;15.03;10.90;;;;;;;;;;5028405;28;20781;-58
2021/01/17 01:36:27;;;;;;;12.33;10.00;;;;;;;;;;5029253;28;20439;-57
2021/01/17 01:38:54;;;;;;;14.13;10.50;;;;;;;;;;5028939;28;20779;-56
2021/01/17 01:41:20;;;;;;;12.87;10.27;;;;;;;;;;5029033;28;20464;-56
2021/01/17 01:43:46;;;;;;;13.50;10.53;;;;;;;;;;5028715;28;20479;-57
2021/01/17 01:46:22;;;;;;;12.63;10.00;;;;;;;;;;5029391;28;20421;-56
2021/01/17 01:48:49;;;;;;;14.00;10.53;;;;;;;;;;5028339;28;20471;-57
2021/01/17 01:51:16;;;;;;;13.70;10.37;;;;;;;;;;5014822;28;20804;-56
2021/01/17 01:53:42;;;;;;;12.97;10.30;;;;;;;;;;5032885;28;20470;-57
2021/01/17 01:56:11;;;;;;;14.27;9.90;;;;;;;;;;5032941;28;20436;-57
2021/01/17 01:58:38;;;;;;;13.93;10.00;;;;;;;;;;4999162;28;20511;-57
2021/01/17 02:01:06;;;;;;;13.67;9.93;;;;;;;;;;5032742;28;20786;-57
2021/01/17 02:03:32;;;;;;;14.13;11.00;;;;;;;;;;5032198;28;20762;-58
2021/01/17 02:05:58;;;;;;;12.87;10.17;;;;;;;;;;5032789;28;20507;-57
2021/01/17 02:08:41;;;;;;;14.53;10.70;;;;;;;;;;5029639;28;20432;-57
2021/01/17 02:11:13;;;;;;;15.00;10.83;;;;;;;;;;5032287;28;20936;-57
2021/01/17 02:13:40;;;;;;;14.23;10.37;;;;;;;;;;5031981;28;20755;-57
2021/01/17 02:16:07;;;;;;;12.63;10.33;;;;;;;;;;5032227;28;20417;-57
2021/01/17 02:18:39;;;;;;;14.03;10.33;;;;;;;;;;5031566;28;20424;-57
2021/01/17 02:21:09;;;;;;;13.47;10.80;;;;;;;;;;5032114;28;20421;-58
2021/01/17 02:23:44;;;;;;;14.77;10.73;;;;;;;;;;5031500;28;20456;-57
2021/01/17 02:26:10;;;;;;;13.17;10.40;;;;;;;;;;5012747;28;20435;-58
2021/01/17 02:28:42;;;;;;;13.63;10.53;;;;;;;;;;5011392;28;20428;-57
2021/01/17 02:31:12;;;;;;;13.27;10.47;;;;;;;;;;5013517;28;20423;-57
2021/01/17 02:33:43;;;;;;;13.70;10.33;;;;;;;;;;5012282;28;20429;-57
2021/01/17 02:36:28;;;;;;;14.30;10.33;;;;;;;;;;5030919;28;21184;-57
2021/01/17 02:39:13;;;;;;;13.87;10.23;;;;;;;;;;5029495;28;20412;-56
2021/01/17 02:41:39;;;;;;;15.17;9.70;;;;;;;;;;5027961;28;20890;-56
2021/01/17 02:44:07;;;;;;;15.13;10.73;;;;;;;;;;5004811;28;20489;-56
2021/01/17 02:46:33;;;;;;;16.27;10.67;;;;;;;;;;5011669;28;20887;-57
2021/01/17 02:49:00;;;;;;;13.13;10.50;;;;;;;;;;5025609;28;20418;-57
2021/01/17 02:51:27;;;;;;;14.27;10.17;;;;;;;;;;5008786;28;20413;-57
2021/01/17 02:54:11;;;;;;;12.60;9.50;;;;;;;;;;5029624;28;20553;-57
2021/01/17 02:56:47;;;;;;;13.50;9.97;;;;;;;;;;5027851;28;20428;-57
2021/01/17 02:59:14;;;;;;;13.50;11.00;;;;;;;;;;5009150;28;20782;-57
2021/01/17 03:01:41;;;;;;;14.90;10.20;;;;;;;;;;5029543;28;20420;-57
2021/01/17 03:04:40;;;;;;;12.63;10.33;;;;;;;;;;5025788;28;20504;-59
2021/01/17 03:07:09;;;;;;;15.03;10.87;;;;;;;;;;4985373;28;20478;-57
2021/01/17 03:09:38;;;;;;;13.30;10.00;;;;;;;;;;5030301;28;20479;-56
2021/01/17 03:12:05;;;;;;;15.03;10.67;;;;;;;;;;5020259;28;20911;-57
2021/01/17 03:14:40;;;;;;;15.20;10.33;;;;;;;;;;5028893;28;20957;-57
2021/01/17 03:17:07;;;;;;;12.80;9.93;;;;;;;;;;5010932;28;20452;-57
2021/01/17 03:19:34;;;;;;;15.37;11.07;;;;;;;;;;5012443;28;20479;-57
2021/01/17 03:22:00;;;;;;;14.57;11.13;;;;;;;;;;5027601;28;20515;-57
2021/01/17 03:24:32;;;;;;;13.37;10.03;;;;;;;;;;5017169;28;20549;-56
2021/01/17 03:26:59;;;;;;;14.53;11.40;;;;;;;;;;5026029;28;20420;-57
2021/01/17 03:29:25;;;;;;;13.37;10.13;;;;;;;;;;5030033;28;20432;-57
2021/01/17 03:31:51;;;;;;;13.30;10.70;;;;;;;;;;5024195;28;20904;-57
2021/01/17 03:34:17;;;;;;;14.67;10.47;;;;;;;;;;5022023;28;20428;-56
2021/01/17 03:36:43;;;;;;;14.60;11.20;;;;;;;;;;5028828;28;20444;-57
2021/01/17 03:39:09;;;;;;;14.53;10.93;;;;;;;;;;5025209;28;20425;-57
2021/01/17 03:41:36;;;;;;;15.00;10.63;;;;;;;;;;5004763;28;20432;-56
2021/01/17 03:44:02;;;;;;;13.87;9.87;;;;;;;;;;5028940;28;20464;-57
2021/01/17 03:46:28;;;;;;;15.13;11.17;;;;;;;;;;5029875;28;20435;-57
2021/01/17 03:49:04;;;;;;;15.10;11.57;;;;;;;;;;5027915;28;20797;-57
2021/01/17 03:51:30;;;;;;;15.17;10.90;;;;;;;;;;5013633;28;20416;-56
2021/01/17 03:53:59;;;;;;;16.30;10.77;;;;;;;;;;5021354;28;20755;-56
2021/01/17 03:56:26;;;;;;;17.47;11.97;;;;;;;;;;5028809;28;20433;-56
2021/01/17 03:58:52;;;;;;;15.17;11.27;;;;;;;;;;5028455;28;20436;-57
2021/01/17 04:01:24;;;;;;;15.93;11.43;;;;;;;;;;5003661;28;20783;-57
2021/01/17 04:03:50;;;;;;;16.57;11.63;;;;;;;;;;5022801;28;20473;-57
2021/01/17 04:06:16;;;;;;;15.47;11.70;;;;;;;;;;5028079;28;20478;-57
2021/01/17 04:08:48;;;;;;;19.63;13.10;;;;;;;;;;5028711;28;20935;-57
2021/01/17 04:11:20;;;;;;;16.50;10.97;;;;;;;;;;5011203;28;20796;-57
2021/01/17 04:13:46;;;;;;;16.07;11.73;;;;;;;;;;5027569;28;21321;-57
2021/01/17 04:16:12;;;;;;;15.73;10.60;;;;;;;;;;5021998;28;20491;-60
2021/01/17 04:18:38;;;;;;;14.50;11.20;;;;;;;;;;5028880;28;20989;-59
2021/01/17 04:21:04;;;;;;;16.27;11.97;;;;;;;;;;5003199;28;20420;-58
2021/01/17 04:23:30;;;;;;;16.13;11.13;;;;;;;;;;5011005;28;20547;-57
2021/01/17 04:25:59;;;;;;;16.53;11.47;;;;;;;;;;5029524;28;20471;-57
2021/01/17 04:28:28;;;;;;;14.60;11.13;;;;;;;;;;5029003;28;20432;-59
2021/01/17 04:31:00;;;;;;;16.87;11.90;;;;;;;;;;5021787;28;20424;-57
2021/01/17 04:33:26;;;;;;;15.87;12.00;;;;;;;;;;5025912;28;20781;-58
2021/01/17 04:35:52;;;;;;;16.63;11.50;;;;;;;;;;5011091;28;20422;-57
2021/01/17 04:38:18;;;;;;;15.23;10.87;;;;;;;;;;5029495;28;20432;-58
2021/01/17 04:40:44;;;;;;;16.60;12.50;;;;;;;;;;5030119;28;20515;-57
2021/01/17 04:43:31;;;;;;;17.63;12.20;;;;;;;;;;5029274;28;20417;-57
2021/01/17 04:45:59;;;;;;;18.43;12.47;;;;;;;;;;5029637;28;20450;-57
2021/01/17 04:48:25;;;;;;;14.87;11.40;;;;;;;;;;5024357;28;20428;-57
2021/01/17 04:50:56;;;;;;;15.43;11.17;;;;;;;;;;5027273;28;20770;-57
2021/01/17 04:53:23;;;;;;;16.27;12.50;;;;;;;;;;5010913;28;20436;-58
2021/01/17 04:55:49;;;;;;;17.43;12.63;;;;;;;;;;5028495;28;20903;-58
2021/01/17 04:58:19;;;;;;;17.77;12.03;;;;;;;;;;5020741;28;20424;-57
2021/01/17 05:01:14;;;;;;;18.00;13.27;;;;;;;;;;5029770;28;20520;-58
2021/01/17 05:04:03;;;;;;;18.40;13.20;;;;;;;;;;5005362;28;20947;-57
2021/01/17 05:06:30;;;;;;;18.97;12.30;;;;;;;;;;5011088;28;20425;-58
2021/01/17 05:08:59;;;;;;;16.60;12.17;;;;;;;;;;5021512;28;20464;-56
2021/01/17 05:11:41;;;;;;;16.07;11.33;;;;;;;;;;5030030;28;20408;-57
2021/01/17 05:14:10;;;;;;;18.20;12.07;;;;;;;;;;5028495;28;20499;-57
2021/01/17 05:16:48;;;;;;;14.17;10.60;;;;;;;;;;5029309;28;20424;-57
2021/01/17 05:19:19;;;;;;;17.93;12.37;;;;;;;;;;5027925;28;20416;-57
2021/01/17 05:21:46;;;;;;;17.57;12.53;;;;;;;;;;5029034;28;20447;-60
2021/01/17 05:24:13;;;;;;;17.23;12.50;;;;;;;;;;5021732;28;20482;-57
2021/01/17 05:26:40;;;;;;;16.80;11.77;;;;;;;;;;5015291;28;20451;-58
2021/01/17 05:29:07;;;;;;;16.63;11.47;;;;;;;;;;5032311;28;20967;-58
2021/01/17 05:31:33;;;;;;;17.50;12.13;;;;;;;;;;5032095;28;20467;-57
2021/01/17 05:34:00;;;;;;;17.30;12.10;;;;;;;;;;5031184;28;20927;-57
2021/01/17 05:36:26;;;;;;;21.13;13.33;;;;;;;;;;5030510;28;20428;-56
2021/01/17 05:39:04;;;;;;;15.77;11.60;;;;;;;;;;5009842;28;20433;-57
2021/01/17 05:41:30;;;;;;;18.87;13.03;;;;;;;;;;5006947;28;20423;-57
2021/01/17 05:43:58;;;;;;;20.93;12.97;;;;;;;;;;5031668;28;20471;-57
2021/01/17 05:46:25;;;;;;;19.77;13.00;;;;;;;;;;5028002;28;20428;-57
2021/01/17 05:49:09;;;;;;;15.87;12.17;;;;;;;;;;5020362;28;20428;-57
2021/01/17 05:51:35;;;;;;;16.93;12.60;;;;;;;;;;5029579;28;20444;-58
2021/01/17 05:54:06;;;;;;;16.73;12.67;;;;;;;;;;5013111;28;20887;-57
2021/01/17 05:56:34;;;;;;;16.97;12.10;;;;;;;;;;5031171;28;20425;-57
2021/01/17 05:59:00;;;;;;;21.40;13.27;;;;;;;;;;5023057;28;20520;-57
2021/01/17 06:01:27;;;;;;;17.43;12.30;;;;;;;;;;5005208;28;20430;-57
2021/01/17 06:03:54;;;;;;;15.17;11.60;;;;;;;;;;5029643;28;20471;-57
2021/01/17 06:06:27;;;;;;;17.40;12.90;;;;;;;;;;5031091;28;20416;-57
2021/01/17 06:09:00;;;;;;;17.43;12.10;;;;;;;;;;5012355;28;20476;-58
2021/01/17 06:11:33;;;;;;;18.47;13.20;;;;;;;;;;5008024;28;20468;-57
2021/01/17 06:14:00;;;;;;;17.07;12.00;;;;;;;;;;5027038;28;20428;-56
2021/01/17 06:16:29;;;;;;;17.27;13.13;;;;;;;;;;5004996;28;20880;-56
2021/01/17 06:19:02;;;;;;;17.27;12.00;;;;;;;;;;5029522;28;20519;-57
2021/01/17 06:21:29;;;;;;;17.07;12.13;;;;;;;;;;5013394;28;20922;-56
2021/01/17 06:24:03;;;;;;;18.13;12.53;;;;;;;;;;5027898;28;20460;-56
2021/01/17 06:26:33;;;;;;;17.03;12.67;;;;;;;;;;5029368;28;20440;-57
2021/01/17 06:29:00;;;;;;;20.80;12.37;;;;;;;;;;5029803;28;20451;-57
2021/01/17 06:31:27;;;;;;;19.80;12.73;;;;;;;;;;5013109;28;20536;-56
2021/01/17 06:33:53;;;;;;;19.50;12.57;;;;;;;;;;5028862;28;20432;-56
2021/01/17 06:36:20;;;;;;;18.90;12.87;;;;;;;;;;5024178;28;20425;-56
2021/01/17 06:38:46;;;;;;;17.27;12.63;;;;;;;;;;5029666;28;20753;-57
2021/01/17 06:41:13;;;;;;;17.20;12.97;;;;;;;;;;5012087;28;21320;-57
2021/01/17 06:43:41;;;;;;;17.67;12.53;;;;;;;;;;5012473;28;20452;-57
2021/01/17 06:46:07;;;;;;;18.13;12.73;;;;;;;;;;5029978;28;20475;-57
2021/01/17 06:48:37;;;;;;;19.37;12.47;;;;;;;;;;5022405;28;20926;-57
2021/01/17 06:51:21;;;;;;;18.43;12.73;;;;;;;;;;5011969;28;20547;-57
2021/01/17 06:53:57;;;;;;;19.70;13.90;;;;;;;;;;5019681;28;20424;-57
2021/01/17 06:56:23;;;;;;;17.77;12.47;;;;;;;;;;4996441;28;20567;-57
2021/01/17 06:58:53;;;;;;;16.87;12.03;;;;;;;;;;5004364;28;20426;-57
2021/01/17 07:01:48;;;;;;;21.83;14.20;;;;;;;;;;5012049;28;20431;-57
2021/01/17 07:04:14;;;;;;;22.97;12.00;;;;;;;;;;5027118;28;20503;-57
2021/01/17 07:07:09;;;;;;;17.93;13.07;;;;;;;;;;5005015;28;20432;-57
2021/01/17 07:09:44;;;;;;;17.23;12.07;;;;;;;;;;5029439;28;20491;-59
2021/01/17 07:12:30;;;;;;;19.70;13.03;;;;;;;;;;5027853;28;20796;-57
2021/01/17 07:15:03;;;;;;;21.90;13.80;;;;;;;;;;5026726;28;20935;-57
2021/01/17 07:17:32;;;;;;;20.03;12.73;;;;;;;;;;4995586;28;20424;-57
2021/01/17 07:20:05;;;;;;;20.50;12.50;;;;;;;;;;5029378;28;20421;-58
2021/01/17 07:22:34;;;;;;;20.57;12.80;;;;;;;;;;5026831;28;20424;-57
2021/01/17 07:25:06;;;;;;;20.87;13.30;;;;;;;;;;5008152;28;20461;-57
2021/01/17 07:27:44;;;;;;;19.90;12.80;;;;;;;;;;5029095;28;20416;-58
2021/01/17 07:30:14;;;;;;;19.33;11.97;;;;;;;;;;5010548;28;21429;-58
2021/01/17 07:32:51;;;;;;;18.73;12.83;;;;;;;;;;5029244;28;20417;-57
2021/01/17 07:35:24;;;;;;;17.63;12.37;;;;;;;;;;5012072;28;20514;-58
2021/01/17 07:37:53;;;;;;;19.37;13.20;;;;;;;;;;5029097;28;20424;-59
2021/01/17 07:41:07;;;;;;;25.70;16.03;;;;;;;;;;5011821;28;20427;-57
2021/01/17 07:43:09;;;;;;;24.17;15.20;;;;;;;;;;4995239;28;20962;-55
2021/01/17 07:45:39;;;;;;;28.50;16.30;;;;;;;;;;5024248;28;20951;-56
2021/01/17 07:48:09;;;;;;;24.83;16.13;;;;;;;;;;5028220;28;20419;-55
2021/01/17 07:50:39;;;;;;;25.17;17.00;;;;;;;;;;5003278;28;20915;-57
2021/01/17 07:53:13;;;;;;;26.83;16.43;;;;;;;;;;5020559;28;20945;-58
2021/01/17 07:55:40;;;;;;;31.00;17.30;;;;;;;;;;5018572;28;20409;-56
2021/01/17 07:58:07;;;;;;;31.17;17.63;;;;;;;;;;5027513;28;20792;-56
2021/01/17 08:00:37;;;;;;;27.33;15.60;;;;;;;;;;4984742;28;20800;-56
2021/01/17 08:03:03;;;;;;;26.43;16.63;;;;;;;;;;5018711;28;20423;-56
2021/01/17 08:05:56;;;;;;;30.97;18.63;;;;;;;;;;5024531;28;20452;-56
2021/01/17 08:08:46;;;;;;;28.93;16.33;;;;;;;;;;5011049;28;20590;-55
2021/01/17 08:11:32;;;;;;;27.03;17.63;;;;;;;;;;5006037;28;20508;-56
2021/01/17 08:13:58;;;;;;;28.67;16.37;;;;;;;;;;5000967;28;20432;-57
2021/01/17 08:16:25;;;;;;;30.73;17.93;;;;;;;;;;5007059;28;20815;-58
2021/01/17 08:18:51;;;;;;;24.57;17.13;;;;;;;;;;5007704;28;20484;-58
2021/01/17 08:21:20;;;;;;;29.30;17.10;;;;;;;;;;5008983;28;20497;-56
2021/01/17 08:24:05;;;;;;;30.23;17.63;;;;;;;;;;4992263;28;20483;-57
2021/01/17 08:26:50;;;;;;;25.53;16.23;;;;;;;;;;5001043;28;20512;-56
2021/01/17 08:29:16;;;;;;;26.87;16.63;;;;;;;;;;5009050;28;20436;-57
2021/01/17 08:31:43;;;;;;;25.87;16.93;;;;;;;;;;4982283;28;20425;-57
2021/01/17 08:34:11;;;;;;;28.97;18.17;;;;;;;;;;4981359;28;20422;-57
2021/01/17 08:36:37;;;;;;;26.20;16.47;;;;;;;;;;4983502;28;20509;-57
2021/01/17 08:39:04;;;;;;;26.03;16.43;;;;;;;;;;5001347;28;20429;-56
2021/01/17 08:41:30;;;;;;;28.63;16.67;;;;;;;;;;4990533;28;20556;-56
2021/01/17 08:43:56;;;;;;;26.97;16.60;;;;;;;;;;5008759;28;20626;-57
2021/01/17 08:46:35;;;;;;;31.37;18.43;;;;;;;;;;5000231;28;20472;-57
2021/01/17 08:49:01;;;;;;;26.83;17.20;;;;;;;;;;5007238;28;20911;-56
2021/01/17 08:51:27;;;;;;;25.17;16.83;;;;;;;;;;5001946;28;20417;-57
2021/01/17 08:53:54;;;;;;;30.07;18.37;;;;;;;;;;5002550;28;20425;-56
2021/01/17 08:56:20;;;;;;;28.93;18.10;;;;;;;;;;4983706;28;20429;-56
2021/01/17 08:58:47;;;;;;;28.23;17.57;;;;;;;;;;5002290;28;20575;-58
2021/01/17 09:01:14;;;;;;;27.73;17.40;;;;;;;;;;4987937;28;20880;-57
2021/01/17 09:03:43;;;;;;;30.67;17.60;;;;;;;;;;5005549;28;20472;-56
2021/01/17 09:06:12;;;;;;;28.87;18.80;;;;;;;;;;5012994;28;20727;-56
2021/01/17 09:08:54;;;;;;;25.73;15.83;;;;;;;;;;4996266;28;20533;-56
2021/01/17 09:11:31;;;;;;;28.93;18.50;;;;;;;;;;5028358;28;20492;-56
2021/01/17 09:14:11;;;;;;;28.47;17.27;;;;;;;;;;5018444;28;20444;-56
2021/01/17 09:16:47;;;;;;;28.70;18.00;;;;;;;;;;5022145;28;20438;-58
2021/01/17 09:19:14;;;;;;;32.67;18.47;;;;;;;;;;5028794;28;20404;-56
2021/01/17 09:21:41;;;;;;;29.07;16.90;;;;;;;;;;5032908;28;20877;-56
2021/01/17 09:24:14;;;;;;;31.83;17.83;;;;;;;;;;5032246;28;20454;-58
2021/01/17 09:26:47;;;;;;;28.93;17.40;;;;;;;;;;5011340;28;20421;-58
2021/01/17 09:29:39;;;;;;;26.73;17.33;;;;;;;;;;5008651;28;20420;-59
2021/01/17 09:32:07;;;;;;;24.10;16.30;;;;;;;;;;5023384;28;20417;-59
2021/01/17 09:34:35;;;;;;;25.67;15.47;;;;;;;;;;5029109;28;20435;-59
2021/01/17 09:37:04;;;;;;;25.43;16.73;;;;;;;;;;5029988;28;20420;-58
2021/01/17 09:39:32;;;;;;;28.20;15.67;;;;;;;;;;5031111;28;20428;-58
2021/01/17 09:41:59;;;;;;;23.47;16.17;;;;;;;;;;5031044;28;20508;-58
2021/01/17 09:44:26;;;;;;;23.47;15.37;;;;;;;;;;5029135;28;21006;-59
2021/01/17 09:46:52;;;;;;;22.20;15.53;;;;;;;;;;5010510;28;20504;-58
2021/01/17 09:49:22;;;;;;;23.70;14.53;;;;;;;;;;5010765;28;20923;-58
2021/01/17 09:51:48;;;;;;;23.93;15.40;;;;;;;;;;5007192;28;20931;-59
2021/01/17 09:54:15;;;;;;;21.40;14.27;;;;;;;;;;5022640;28;20454;-58
2021/01/17 09:56:42;;;;;;;25.77;14.50;;;;;;;;;;5012639;28;20459;-58
2021/01/17 09:59:12;;;;;;;22.10;15.13;;;;;;;;;;5030344;28;20850;-58
2021/01/17 10:01:39;;;;;;;21.13;15.13;;;;;;;;;;5030610;28;20428;-57
2021/01/17 10:04:05;;;;;;;22.63;15.73;;;;;;;;;;5010683;28;20463;-58
2021/01/17 10:06:34;;;;;;;21.50;15.30;;;;;;;;;;5026725;28;20417;-58
2021/01/17 10:09:03;;;;;;;22.47;15.17;;;;;;;;;;5017888;28;20506;-58
2021/01/17 10:11:29;;;;;;;26.70;16.70;;;;;;;;;;5013877;28;20424;-56
2021/01/17 10:13:56;;;;;;;29.23;18.07;;;;;;;;;;5030040;28;20499;-59
2021/01/17 10:16:26;;;;;;;29.47;18.33;;;;;;;;;;5026499;28;20500;-57
2021/01/17 10:18:52;;;;;;;25.40;17.47;;;;;;;;;;5029196;28;20729;-57
2021/01/17 10:21:18;;;;;;;27.57;18.77;;;;;;;;;;5027091;28;20432;-57
2021/01/17 10:23:44;;;;;;;28.67;18.70;;;;;;;;;;5029930;28;20951;-56
2021/01/17 10:26:12;;;;;;;26.77;18.40;;;;;;;;;;5011749;28;20448;-55
2021/01/17 10:28:39;;;;;;;30.00;17.73;;;;;;;;;;5012039;28;20799;-57
2021/01/17 10:31:05;;;;;;;32.37;20.57;;;;;;;;;;5012836;28;20837;-55
2021/01/17 10:33:34;;;;;;;29.67;19.07;;;;;;;;;;5029746;28;20526;-56
2021/01/17 10:36:00;;;;;;;29.13;18.90;;;;;;;;;;5008423;28;20422;-57
2021/01/17 10:38:27;;;;;;;32.60;19.73;;;;;;;;;;5027976;28;20794;-57
2021/01/17 10:40:53;;;;;;;29.17;20.03;;;;;;;;;;5020786;28;20551;-56
2021/01/17 10:43:32;;;;;;;30.40;19.03;;;;;;;;;;5029121;28;20429;-56
2021/01/17 10:46:12;;;;;;;28.20;18.40;;;;;;;;;;5021578;28;20433;-57
2021/01/17 10:48:44;;;;;;;30.33;19.83;;;;;;;;;;5013267;28;20433;-56
2021/01/17 10:51:17;;;;;;;31.27;20.30;;;;;;;;;;5017850;28;20990;-57
2021/01/17 10:53:46;;;;;;;33.17;20.83;;;;;;;;;;5027877;28;20428;-57
2021/01/17 10:56:16;;;;;;;32.80;21.07;;;;;;;;;;5019207;28;20478;-57
2021/01/17 10:58:42;;;;;;;32.50;20.33;;;;;;;;;;5029687;28;20427;-56
2021/01/17 11:01:08;;;;;;;36.50;22.13;;;;;;;;;;5009913;28;20437;-57
2021/01/17 11:03:35;;;;;;;31.60;20.53;;;;;;;;;;5029518;28;20978;-59
2021/01/17 11:06:11;;;;;;;32.13;20.43;;;;;;;;;;5029254;28;20907;-57
2021/01/17 11:08:50;;;;;;;31.00;20.17;;;;;;;;;;5010969;28;20545;-57
2021/01/17 11:11:17;;;;;;;38.20;21.00;;;;;;;;;;5022128;28;20493;-59
2021/01/17 11:13:43;;;;;;;32.17;20.00;;;;;;;;;;5027369;28;20783;-59
2021/01/17 11:16:09;;;;;;;34.13;21.33;;;;;;;;;;5028902;28;20471;-58
2021/01/17 11:18:36;;;;;;;34.50;20.67;;;;;;;;;;5027792;28;20482;-57
2021/01/17 11:21:04;;;;;;;40.00;22.87;;;;;;;;;;5029593;28;20432;-57
2021/01/17 11:23:31;;;;;;;40.77;22.87;;;;;;;;;;5011094;28;20887;-58
2021/01/17 11:25:58;;;;;;;37.57;21.27;;;;;;;;;;5029079;28;20456;-56
2021/01/17 11:28:28;;;;;;;37.60;22.43;;;;;;;;;;5028870;28;20424;-56
2021/01/17 11:30:54;;;;;;;38.17;22.33;;;;;;;;;;5029143;28;20428;-56
2021/01/17 11:33:26;;;;;;;36.83;21.40;;;;;;;;;;5010658;28;20829;-56
2021/01/17 11:35:52;;;;;;;35.83;21.77;;;;;;;;;;5024651;28;20265;-59
2021/01/17 11:38:18;;;;;;;41.63;23.43;;;;;;;;;;5026878;28;20431;-56
2021/01/17 11:40:44;;;;;;;35.50;22.20;;;;;;;;;;5029440;28;20439;-57
2021/01/17 11:43:14;;;;;;;38.57;22.90;;;;;;;;;;5028104;28;20907;-56
2021/01/17 11:45:44;;;;;;;40.57;22.53;;;;;;;;;;5029524;28;20513;-56
2021/01/17 11:48:11;;;;;;;33.93;21.97;;;;;;;;;;5028436;28;20454;-56
2021/01/17 11:50:44;;;;;;;40.63;22.77;;;;;;;;;;5028391;28;20887;-56
2021/01/17 11:53:11;;;;;;;44.00;22.77;;;;;;;;;;5009243;28;20790;-56
2021/01/17 11:55:37;;;;;;;35.37;21.90;;;;;;;;;;5029555;28;20868;-55
2021/01/17 11:58:07;;;;;;;36.93;22.70;;;;;;;;;;5011261;28;20428;-56
2021/01/17 12:00:33;;;;;;;38.43;22.70;;;;;;;;;;5019963;28;20426;-57
2021/01/17 12:03:00;;;;;;;34.17;21.27;;;;;;;;;;5015389;28;20414;-58
2021/01/17 12:05:26;;;;;;;33.30;21.27;;;;;;;;;;5025994;28;20896;-55
2021/01/17 12:07:59;;;;;;;32.70;19.90;;;;;;;;;;5026953;28;20435;-55
2021/01/17 12:10:25;;;;;;;35.80;21.70;;;;;;;;;;5029293;28;20479;-55
2021/01/17 12:12:52;;;;;;;36.30;21.07;;;;;;;;;;5028813;28;20428;-55
2021/01/17 12:15:19;;;;;;;34.60;20.03;;;;;;;;;;5028859;28;20435;-55
2021/01/17 12:17:45;;;;;;;28.47;18.77;;;;;;;;;;5026901;28;20581;-55
2021/01/17 12:20:11;;;;;;;28.90;17.60;;;;;;;;;;5021826;28;21029;-54
2021/01/17 12:22:37;;;;;;;29.27;18.87;;;;;;;;;;5011150;28;20439;-55
2021/01/17 12:25:04;;;;;;;31.27;18.60;;;;;;;;;;5008233;28;20484;-55
2021/01/17 12:27:30;;;;;;;34.70;19.30;;;;;;;;;;5029137;28;20712;-55
2021/01/17 12:29:56;;;;;;;31.67;18.87;;;;;;;;;;5028643;28;20421;-55
2021/01/17 12:32:22;;;;;;;30.07;18.13;;;;;;;;;;5028570;28;20432;-55
2021/01/17 12:34:48;;;;;;;26.93;18.73;;;;;;;;;;5028406;28;20432;-55
2021/01/17 12:37:18;;;;;;;26.07;18.03;;;;;;;;;;5029046;28;20977;-55
2021/01/17 12:39:44;;;;;;;26.47;17.50;;;;;;;;;;5010969;28;20429;-55
2021/01/17 12:42:10;;;;;;;27.17;17.70;;;;;;;;;;5028511;28;20436;-54
2021/01/17 12:44:36;;;;;;;28.10;17.60;;;;;;;;;;5029236;28;20460;-54
2021/01/17 12:47:05;;;;;;;25.10;16.80;;;;;;;;;;5028435;28;20417;-55
2021/01/17 12:49:31;;;;;;;27.20;17.53;;;;;;;;;;5024605;28;20949;-55
2021/01/17 12:51:57;;;;;;;31.47;19.37;;;;;;;;;;5028063;28;20631;-56
2021/01/17 12:54:23;;;;;;;28.93;18.70;;;;;;;;;;5029079;28;20177;-55
2021/01/17 12:56:49;;;;;;;28.63;18.13;;;;;;;;;;5020640;28;20882;-55
2021/01/17 12:59:15;;;;;;;31.40;19.63;;;;;;;;;;5027833;28;20200;-55
2021/01/17 13:01:41;;;;;;;30.13;17.70;;;;;;;;;;5028889;28;20428;-55
2021/01/17 13:04:07;;;;;;;30.57;17.90;;;;;;;;;;5023923;28;20244;-55
2021/01/17 13:06:33;;;;;;;31.33;19.07;;;;;;;;;;5016827;28;20174;-55
2021/01/17 13:08:59;;;;;;;26.60;17.80;;;;;;;;;;5018914;28;20456;-55
2021/01/17 13:11:25;;;;;;;28.63;17.87;;;;;;;;;;5020361;28;20515;-55
2021/01/17 13:13:51;;;;;;;27.70;17.23;;;;;;;;;;5002173;28;20444;-55
2021/01/17 13:16:20;;;;;;;32.27;18.87;;;;;;;;;;5020452;28;20459;-56
2021/01/17 13:18:47;;;;;;;25.43;17.77;;;;;;;;;;5018836;28;20986;-55
2021/01/17 13:21:16;;;;;;;25.87;17.83;;;;;;;;;;5020858;28;20421;-56
2021/01/17 13:23:42;;;;;;;34.03;19.53;;;;;;;;;;5019908;28;20429;-55
2021/01/17 13:26:15;;;;;;;28.50;18.93;;;;;;;;;;5018774;28;20770;-56
2021/01/17 13:28:41;;;;;;;29.43;18.10;;;;;;;;;;5021827;28;20528;-56
2021/01/17 13:31:07;;;;;;;29.00;18.77;;;;;;;;;;5021921;28;20428;-57
2021/01/17 13:33:33;;;;;;;31.47;17.90;;;;;;;;;;5010082;28;20424;-56
2021/01/17 13:35:59;;;;;;;33.17;19.93;;;;;;;;;;5023798;28;20527;-56
2021/01/17 13:38:25;;;;;;;29.27;19.57;;;;;;;;;;5027838;28;20452;-58
2021/01/17 13:40:54;;;;;;;28.80;18.27;;;;;;;;;;5028248;28;20830;-55
2021/01/17 13:43:21;;;;;;;27.20;18.07;;;;;;;;;;5025177;28;20437;-58
2021/01/17 13:45:47;;;;;;;28.23;18.77;;;;;;;;;;5005429;28;21050;-57
2021/01/17 13:48:14;;;;;;;30.63;18.63;;;;;;;;;;5027634;28;20435;-57
2021/01/17 13:50:41;;;;;;;30.93;18.17;;;;;;;;;;5028198;28;20592;-58
2021/01/17 13:53:08;;;;;;;29.10;16.80;;;;;;;;;;5028714;28;20463;-56
2021/01/17 13:55:34;;;;;;;29.57;18.37;;;;;;;;;;5010729;28;20760;-56
2021/01/17 13:58:00;;;;;;;28.40;17.80;;;;;;;;;;5007634;28;20448;-56
2021/01/17 14:00:28;;;;;;;30.00;18.80;;;;;;;;;;5025393;28;20885;-56
2021/01/17 14:02:54;;;;;;;38.33;19.43;;;;;;;;;;5025483;28;20455;-57
2021/01/17 14:05:20;;;;;;;33.47;17.70;;;;;;;;;;5021635;28;20472;-56
2021/01/17 14:07:50;;;;;;;32.57;18.77;;;;;;;;;;5023579;28;20444;-56
2021/01/17 14:10:16;;;;;;;32.77;18.33;;;;;;;;;;5028389;28;20464;-55
2021/01/17 14:12:47;;;;;;;35.20;18.87;;;;;;;;;;5025166;28;20456;-55
2021/01/17 14:15:13;;;;;;;35.10;20.13;;;;;;;;;;5033385;28;20445;-56
2021/01/17 14:17:39;;;;;;;29.90;19.47;;;;;;;;;;5027575;28;20929;-56
2021/01/17 14:20:06;;;;;;;37.03;19.43;;;;;;;;;;5027904;28;20432;-58
2021/01/17 14:22:33;;;;;;;36.40;19.73;;;;;;;;;;5027763;28;20425;-56
2021/01/17 14:24:59;;;;;;;30.63;18.87;;;;;;;;;;5029348;28;20563;-58
2021/01/17 14:27:25;;;;;;;31.83;17.83;;;;;;;;;;5025360;28;20437;-56
2021/01/17 14:29:51;;;;;;;38.33;20.20;;;;;;;;;;5010062;28;20494;-56